Time;durP1;ratioP1;P1;durP2;ratioP2;P2;SDS_P1;SDS_P2;PMS_P1;PMS_P2;Temp;Humidity;BMP_temperature;BMP_pressure;BME280_temperature;BME280_humidity;BME280_pressure;Samples;Min_cycle;Max_cycle;Signal;HPM_P1;HPM_P2
2024/01/28 00:00:07;;;;;;;20.33;7.70;;;2.40;99.90;;;;;;4982620;28;20440;-70
2024/01/28 00:02:32;;;;;;;22.23;7.00;;;2.30;99.90;;;;;;4986517;28;20034;-70
2024/01/28 00:04:58;;;;;;;29.65;7.88;;;2.30;99.90;;;;;;4979100;28;20624;-70
2024/01/28 00:07:26;;;;;;;28.45;6.63;;;2.20;99.90;;;;;;4983110;28;20081;-70
2024/01/28 00:09:51;;;;;;;;;;;2.20;99.90;;;;;;4981612;28;20027;-70
2024/01/28 00:12:17;;;;;;;35.40;8.15;;;2.20;99.90;;;;;;4981457;28;19921;-70
2024/01/28 00:14:42;;;;;;;21.85;6.07;;;2.10;99.90;;;;;;4983215;28;20397;-70
2024/01/28 00:17:08;;;;;;;21.33;6.65;;;2.20;99.90;;;;;;4986684;28;20053;-70
2024/01/28 00:19:36;;;;;;;24.90;6.32;;;2.10;99.90;;;;;;4980324;28;20026;-70
2024/01/28 00:22:04;;;;;;;20.48;5.47;;;2.10;99.90;;;;;;4981722;28;20059;-70
2024/01/28 00:24:29;;;;;;;;;;;2.10;99.90;;;;;;4980666;28;20037;-70
2024/01/28 00:26:59;;;;;;;18.40;5.05;;;2.10;99.90;;;;;;4982936;28;19918;-70
2024/01/28 00:29:28;;;;;;;21.80;5.97;;;2.00;99.90;;;;;;4989300;28;20065;-70
2024/01/28 00:31:59;;;;;;;12.18;4.55;;;1.90;99.90;;;;;;4982303;28;20110;-70
2024/01/28 00:34:25;;;;;;;27.73;5.82;;;1.90;99.90;;;;;;4997959;28;20035;-70
2024/01/28 00:36:51;;;;;;;18.35;5.97;;;1.90;99.90;;;;;;4985271;28;20030;-70
2024/01/28 00:39:16;;;;;;;21.63;5.70;;;1.90;99.90;;;;;;4982028;28;20034;-70
2024/01/28 00:41:44;;;;;;;22.20;5.70;;;1.90;99.90;;;;;;4980444;28;20206;-70
2024/01/28 00:44:10;;;;;;;22.17;5.68;;;1.90;99.90;;;;;;4984035;28;20042;-70
2024/01/28 00:46:37;;;;;;;20.55;5.50;;;1.80;99.90;;;;;;4984682;23;20369;-70
2024/01/28 00:49:05;;;;;;;17.23;5.82;;;1.80;99.90;;;;;;4978394;28;20031;-70
2024/01/28 00:51:31;;;;;;;16.88;5.32;;;1.80;99.90;;;;;;4983392;28;20089;-70
2024/01/28 00:53:59;;;;;;;19.05;6.15;;;1.80;99.90;;;;;;4980385;28;20545;-70
2024/01/28 00:56:25;;;;;;;25.48;6.35;;;1.80;99.90;;;;;;4980242;28;20433;-70
2024/01/28 00:58:50;;;;;;;23.38;5.80;;;1.80;99.90;;;;;;4986406;28;20286;-70
2024/01/28 01:01:18;;;;;;;17.30;5.82;;;1.70;99.90;;;;;;4985430;28;20551;-70
2024/01/28 01:03:43;;;;;;;18.15;5.38;;;1.70;99.90;;;;;;4981583;28;20042;-70
2024/01/28 01:06:09;;;;;;;11.93;5.25;;;1.70;99.90;;;;;;4985217;28;20034;-70
2024/01/28 01:08:39;;;;;;;17.52;5.32;;;1.70;99.90;;;;;;4978708;28;20042;-69
2024/01/28 01:11:07;;;;;;;16.90;5.65;;;1.70;99.90;;;;;;4981784;28;20031;-69
2024/01/28 01:13:32;;;;;;;;;;;1.60;99.90;;;;;;4985337;28;20781;-70
2024/01/28 01:15:59;;;;;;;21.20;5.28;;;1.50;99.90;;;;;;4982290;28;19957;-69
2024/01/28 01:18:25;;;;;;;11.50;5.30;;;1.50;99.90;;;;;;4978998;28;20030;-70
2024/01/28 01:20:51;;;;;;;24.40;5.82;;;1.50;99.90;;;;;;4979678;28;20405;-70
2024/01/28 01:23:17;;;;;;;28.55;5.57;;;1.60;99.90;;;;;;4983139;28;20076;-69
2024/01/28 01:25:42;;;;;;;21.85;5.95;;;1.50;99.90;;;;;;4984084;28;20433;-69
2024/01/28 01:28:10;;;;;;;24.58;4.90;;;1.50;99.90;;;;;;4983578;28;20487;-69
2024/01/28 01:30:36;;;;;;;14.82;5.43;;;1.50;99.90;;;;;;4982973;28;20039;-69
2024/01/28 01:33:01;;;;;;;17.20;5.20;;;1.50;99.90;;;;;;4979453;28;20042;-69
2024/01/28 01:35:27;;;;;;;17.55;4.95;;;1.40;99.90;;;;;;4977880;28;20044;-69
2024/01/28 01:37:56;;;;;;;19.75;4.95;;;1.40;99.90;;;;;;4975718;28;20494;-70
2024/01/28 01:40:24;;;;;;;9.90;4.30;;;1.40;99.90;;;;;;4983034;28;20027;-69
2024/01/28 01:42:54;;;;;;;14.23;4.88;;;1.40;99.90;;;;;;4983680;28;20031;-69
2024/01/28 01:45:20;;;;;;;19.40;4.90;;;1.30;99.90;;;;;;4981904;28;20030;-70
2024/01/28 01:47:45;;;;;;;15.02;4.95;;;1.40;99.90;;;;;;4980498;28;20201;-69
2024/01/28 01:50:11;;;;;;;20.92;4.55;;;1.30;99.90;;;;;;4982584;28;20065;-69
2024/01/28 01:52:42;;;;;;;21.33;4.25;;;1.30;99.90;;;;;;4980952;28;20035;-70
2024/01/28 01:55:09;;;;;;;25.55;4.50;;;1.30;99.90;;;;;;4981408;28;20477;-70
2024/01/28 01:57:39;;;;;;;20.25;4.43;;;1.30;99.90;;;;;;4979999;28;20062;-70
2024/01/28 02:00:05;;;;;;;14.60;4.32;;;1.30;99.90;;;;;;4983178;28;20042;-70
2024/01/28 02:02:34;;;;;;;14.15;4.72;;;1.30;99.90;;;;;;4981906;28;20046;-69
2024/01/28 02:04:59;;;;;;;14.70;4.80;;;1.30;99.90;;;;;;4979980;28;20070;-70
2024/01/28 02:07:27;;;;;;;19.73;4.13;;;1.30;99.90;;;;;;4982130;28;20501;-70
2024/01/28 02:09:53;;;;;;;;;;;1.30;99.90;;;;;;4983092;28;20392;-69
2024/01/28 02:12:21;;;;;;;19.60;5.25;;;1.30;99.90;;;;;;4980559;28;19920;-69
2024/01/28 02:14:47;;;;;;;24.98;5.32;;;1.30;99.90;;;;;;4982480;28;20038;-69
2024/01/28 02:17:13;;;;;;;19.83;5.60;;;1.30;99.90;;;;;;4982012;28;20054;-69
2024/01/28 02:19:38;;;;;;;19.70;5.45;;;1.30;99.90;;;;;;4979366;28;20262;-69
2024/01/28 02:22:04;;;;;;;16.83;5.47;;;1.30;99.90;;;;;;4984000;28;20037;-69
2024/01/28 02:24:29;;;;;;;19.30;5.30;;;1.20;99.90;;;;;;4980634;28;20039;-70
2024/01/28 02:26:55;;;;;;;16.52;4.85;;;1.20;99.90;;;;;;4976799;28;20256;-70
2024/01/28 02:29:20;;;;;;;20.05;4.93;;;1.20;99.90;;;;;;4978835;28;20088;-69
2024/01/28 02:31:46;;;;;;;27.20;5.18;;;1.20;99.90;;;;;;4984016;28;20602;-69
2024/01/28 02:34:12;;;;;;;17.48;5.40;;;1.20;99.90;;;;;;4978302;28;20600;-69
2024/01/28 02:36:42;;;;;;;18.75;5.25;;;1.20;99.90;;;;;;4979538;28;20042;-69
2024/01/28 02:39:08;;;;;;;17.05;5.10;;;1.10;99.90;;;;;;4977963;28;20639;-69
2024/01/28 02:41:38;;;;;;;21.77;4.93;;;1.10;99.90;;;;;;4980542;28;20043;-70
2024/01/28 02:44:04;;;;;;;18.60;5.05;;;1.10;99.90;;;;;;4981200;28;20122;-70
2024/01/28 02:46:30;;;;;;;15.60;4.05;;;1.10;99.90;;;;;;4983528;28;20113;-69
2024/01/28 02:48:55;;;;;;;13.30;4.70;;;1.10;99.90;;;;;;4979354;28;20058;-69
2024/01/28 02:51:21;;;;;;;27.98;5.78;;;1.10;99.90;;;;;;4980145;28;20039;-69
2024/01/28 02:53:46;;;;;;;15.98;4.40;;;1.00;99.90;;;;;;4977935;28;20066;-69
2024/01/28 02:56:12;;;;;;;16.25;4.18;;;1.00;99.90;;;;;;4984828;28;20043;-69
2024/01/28 02:58:38;;;;;;;15.05;4.05;;;1.00;99.90;;;;;;4980634;28;20042;-69
2024/01/28 03:01:06;;;;;;;14.30;4.38;;;1.00;99.90;;;;;;4977049;28;20107;-69
2024/01/28 03:03:31;;;;;;;13.27;3.90;;;1.00;99.90;;;;;;4981477;28;20528;-69
2024/01/28 03:05:57;;;;;;;16.95;5.25;;;1.00;99.90;;;;;;4982906;28;20022;-70
2024/01/28 03:08:24;;;;;;;14.55;4.28;;;1.00;99.90;;;;;;4982142;28;20738;-69
2024/01/28 03:10:52;;;;;;;20.05;5.22;;;1.00;99.90;;;;;;4981940;28;20081;-69
2024/01/28 03:13:18;;;;;;;15.95;4.53;;;0.90;99.90;;;;;;4985300;28;20030;-70
2024/01/28 03:15:44;;;;;;;18.25;4.35;;;0.90;99.90;;;;;;4988123;28;20030;-69
2024/01/28 03:18:14;;;;;;;18.52;4.20;;;0.90;99.90;;;;;;4984140;28;20034;-70
2024/01/28 03:20:39;;;;;;;15.93;4.40;;;0.90;99.90;;;;;;4983047;28;20162;-69
2024/01/28 03:23:05;;;;;;;15.40;4.32;;;0.80;99.90;;;;;;4985007;28;20252;-69
2024/01/28 03:25:31;;;;;;;30.65;4.25;;;0.80;99.90;;;;;;4986870;28;20030;-69
2024/01/28 03:27:57;;;;;;;17.80;4.45;;;0.80;99.90;;;;;;4979706;28;20100;-69
2024/01/28 03:30:22;;;;;;;15.82;4.40;;;0.80;99.90;;;;;;4980978;28;20034;-70
2024/01/28 03:32:48;;;;;;;14.05;3.78;;;0.80;99.90;;;;;;4984139;28;20043;-69
2024/01/28 03:35:16;;;;;;;23.85;5.13;;;0.80;99.90;;;;;;4982258;28;20133;-69
2024/01/28 03:37:42;;;;;;;13.48;4.05;;;0.80;99.90;;;;;;4980963;28;20038;-69
2024/01/28 03:40:10;;;;;;;15.15;3.45;;;0.80;99.90;;;;;;4980793;28;20038;-70
2024/01/28 03:42:35;;;;;;;23.65;4.28;;;0.80;99.90;;;;;;4984838;28;20034;-69
2024/01/28 03:45:06;;;;;;;20.20;4.50;;;0.80;99.90;;;;;;4985527;28;20173;-69
2024/01/28 03:47:32;;;;;;;21.48;4.65;;;0.80;99.90;;;;;;4984298;28;20675;-69
2024/01/28 03:50:00;;;;;;;15.20;4.22;;;0.80;99.90;;;;;;4981427;28;20045;-70
2024/01/28 03:52:30;;;;;;;18.13;4.00;;;0.80;99.90;;;;;;4984099;28;20393;-70
2024/01/28 03:54:58;;;;;;;17.15;5.15;;;0.80;99.90;;;;;;4986908;28;20524;-69
2024/01/28 03:57:24;;;;;;;26.60;5.25;;;0.80;99.90;;;;;;4987486;28;20047;-70
2024/01/28 03:59:49;;;;;;;15.20;4.63;;;0.80;99.90;;;;;;4979472;28;20111;-69
2024/01/28 04:02:15;;;;;;;23.77;4.50;;;0.70;99.90;;;;;;4982802;28;20053;-69
2024/01/28 04:04:41;;;;;;;24.42;5.43;;;0.80;99.90;;;;;;4984166;28;20508;-69
2024/01/28 04:07:06;;;;;;;19.10;5.63;;;0.80;99.90;;;;;;4983402;28;20113;-69
2024/01/28 04:09:32;;;;;;;14.00;4.75;;;0.70;99.90;;;;;;4981592;28;20101;-69
2024/01/28 04:12:01;;;;;;;11.95;4.15;;;0.70;99.90;;;;;;4983242;28;20042;-70
2024/01/28 04:14:27;;;;;;;17.75;4.93;;;0.70;99.90;;;;;;4983392;28;20054;-69
2024/01/28 04:16:52;;;;;;;14.65;4.30;;;0.60;99.90;;;;;;4987421;28;20030;-69
2024/01/28 04:19:18;;;;;;;17.85;4.85;;;0.60;99.90;;;;;;4987580;28;20030;-69
2024/01/28 04:21:43;;;;;;;23.10;4.35;;;0.60;99.90;;;;;;4980713;28;20042;-69
2024/01/28 04:24:11;;;;;;;15.60;3.97;;;0.60;99.90;;;;;;4981830;28;20042;-69
2024/01/28 04:26:37;;;;;;;16.63;6.05;;;0.60;99.90;;;;;;4981063;28;20050;-69
2024/01/28 04:29:02;;;;;;;25.83;4.50;;;0.60;99.90;;;;;;4983771;28;20038;-69
2024/01/28 04:31:29;;;;;;;12.35;4.07;;;0.60;99.90;;;;;;4985682;28;20030;-69
2024/01/28 04:33:55;;;;;;;18.63;3.90;;;0.70;99.90;;;;;;4985451;28;20058;-69
2024/01/28 04:36:21;;;;;;;11.30;3.88;;;0.70;99.90;;;;;;4980139;28;20543;-70
2024/01/28 04:38:47;;;;;;;15.77;5.28;;;0.70;99.90;;;;;;4983267;28;20097;-70
2024/01/28 04:41:18;;;;;;;20.60;4.30;;;0.70;99.90;;;;;;4987112;28;20151;-69
2024/01/28 04:43:46;;;;;;;13.77;4.20;;;0.60;99.90;;;;;;4980416;28;20038;-69
2024/01/28 04:46:16;;;;;;;12.40;4.13;;;0.60;99.90;;;;;;4979777;28;20078;-69
2024/01/28 04:48:42;;;;;;;22.38;4.78;;;0.60;99.90;;;;;;4985285;28;20038;-69
2024/01/28 04:51:07;;;;;;;15.77;4.50;;;0.60;99.90;;;;;;4984982;28;20036;-70
2024/01/28 04:53:33;;;;;;;22.00;4.90;;;0.60;99.90;;;;;;4982855;28;20030;-69
2024/01/28 04:55:58;;;;;;;18.15;4.82;;;0.60;99.90;;;;;;4984221;28;20043;-69
2024/01/28 04:58:24;;;;;;;16.42;4.97;;;0.60;99.90;;;;;;4983456;28;20029;-69
2024/01/28 05:00:54;;;;;;;23.83;4.53;;;0.70;99.90;;;;;;4983783;28;20022;-69
2024/01/28 05:03:22;;;;;;;16.35;3.97;;;0.60;99.90;;;;;;4981951;28;20078;-69
2024/01/28 05:05:47;;;;;;;;;;;0.70;99.90;;;;;;4982799;28;20045;-70
2024/01/28 05:08:15;;;;;;;14.05;4.00;;;0.60;99.90;;;;;;4981976;28;19918;-69
2024/01/28 05:10:41;;;;;;;;;;;0.60;99.90;;;;;;4982912;28;20057;-69
2024/01/28 05:13:06;;;;;;;12.30;3.95;;;0.60;99.90;;;;;;4982875;28;19953;-69
2024/01/28 05:15:34;;;;;;;15.00;4.00;;;0.50;99.90;;;;;;4980785;28;20379;-69
2024/01/28 05:18:00;;;;;;;18.92;4.18;;;0.50;99.90;;;;;;4982340;28;20105;-69
2024/01/28 05:20:26;;;;;;;13.07;3.50;;;0.50;99.90;;;;;;4980604;28;20404;-69
2024/01/28 05:22:51;;;;;;;12.43;3.28;;;0.50;99.90;;;;;;4983128;28;20081;-69
2024/01/28 05:25:17;;;;;;;14.50;3.70;;;0.40;99.90;;;;;;4979874;28;20413;-69
2024/01/28 05:27:44;;;;;;;17.80;4.40;;;0.40;99.90;;;;;;4982199;28;20050;-70
2024/01/28 05:30:11;;;;;;;9.13;3.20;;;0.40;99.90;;;;;;4986509;28;20034;-69
2024/01/28 05:32:39;;;;;;;18.08;3.72;;;0.40;99.90;;;;;;4980063;28;20030;-70
2024/01/28 05:35:05;;;;;;;;;;;0.40;99.90;;;;;;4980861;28;20069;-69
2024/01/28 05:37:31;;;;;;;12.27;3.63;;;0.40;99.90;;;;;;4981790;28;19976;-69
2024/01/28 05:39:59;;;;;;;18.83;3.30;;;0.40;99.90;;;;;;4987760;28;20038;-69
2024/01/28 05:42:27;;;;;;;21.35;3.75;;;0.40;99.90;;;;;;4983886;28;20198;-69
2024/01/28 05:44:53;;;;;;;17.02;3.45;;;0.50;99.90;;;;;;4979520;28;20027;-70
2024/01/28 05:47:18;;;;;;;11.95;3.72;;;0.50;99.90;;;;;;4979400;28;20044;-69
2024/01/28 05:49:44;;;;;;;15.38;3.40;;;0.50;99.90;;;;;;4980602;28;20030;-69
2024/01/28 05:52:09;;;;;;;15.30;3.35;;;0.50;99.90;;;;;;4982417;28;20058;-70
2024/01/28 05:54:37;;;;;;;16.13;4.47;;;0.50;99.90;;;;;;4981194;28;20174;-69
2024/01/28 05:57:04;;;;;;;17.17;4.00;;;0.50;99.90;;;;;;4975853;28;20037;-70
2024/01/28 05:59:32;;;;;;;12.23;3.47;;;0.50;99.90;;;;;;4977979;28;20053;-69
2024/01/28 06:02:03;;;;;;;14.55;3.38;;;0.40;99.90;;;;;;4980023;28;20069;-69
2024/01/28 06:04:29;;;;;;;25.88;3.95;;;0.40;99.90;;;;;;4979505;28;20043;-69
2024/01/28 06:06:54;;;;;;;18.48;3.83;;;0.40;99.90;;;;;;4978496;28;20370;-69
2024/01/28 06:09:22;;;;;;;17.92;4.15;;;0.40;99.90;;;;;;4999043;28;20042;-69
2024/01/28 06:11:48;;;;;;;16.27;3.35;;;0.30;99.90;;;;;;4979119;28;20034;-69
2024/01/28 06:14:13;;;;;;;8.82;3.40;;;0.30;99.90;;;;;;4979998;28;20046;-69
2024/01/28 06:16:39;;;;;;;11.73;3.10;;;0.30;99.90;;;;;;4979290;28;20032;-69
2024/01/28 06:19:04;;;;;;;8.07;3.00;;;0.30;99.90;;;;;;4979312;28;20078;-69
2024/01/28 06:21:30;;;;;;;17.23;3.78;;;0.30;99.90;;;;;;4979270;28;20035;-69
2024/01/28 06:23:55;;;;;;;15.20;3.05;;;0.30;99.90;;;;;;4983746;28;20134;-69
2024/01/28 06:26:26;;;;;;;11.82;3.20;;;0.40;99.90;;;;;;4977862;28;20066;-69
2024/01/28 06:28:52;;;;;;;20.15;3.65;;;0.40;99.90;;;;;;4978969;28;20029;-69
2024/01/28 06:31:20;;;;;;;15.48;3.55;;;0.50;99.90;;;;;;4991420;28;20015;-70
2024/01/28 06:33:46;;;;;;;19.13;4.28;;;0.40;99.90;;;;;;4975804;28;20119;-69
2024/01/28 06:36:23;;;;;;;9.93;2.92;;;0.40;99.90;;;;;;4977603;28;20501;-69
2024/01/28 06:38:49;;;;;;;11.10;3.53;;;0.40;99.90;;;;;;4978338;28;20201;-69
2024/01/28 06:41:18;;;;;;;15.98;3.35;;;0.40;99.90;;;;;;4980369;28;20524;-69
2024/01/28 06:43:44;;;;;;;21.33;3.60;;;0.40;99.90;;;;;;4981656;28;20043;-69
2024/01/28 06:46:12;;;;;;;11.13;3.00;;;0.40;99.90;;;;;;4981988;23;20540;-69
2024/01/28 06:48:38;;;;;;;15.95;3.65;;;0.40;99.90;;;;;;4983010;28;20034;-69
2024/01/28 06:51:09;;;;;;;10.43;3.88;;;0.40;99.90;;;;;;4979270;28;20501;-69
2024/01/28 06:53:38;;;;;;;15.60;4.00;;;0.40;99.90;;;;;;4978705;28;20026;-69
2024/01/28 06:56:06;;;;;;;16.23;4.15;;;0.30;99.90;;;;;;4981495;28;20030;-68
2024/01/28 06:58:32;;;;;;;21.00;4.30;;;0.40;99.90;;;;;;4979262;28;20795;-69
2024/01/28 07:00:57;;;;;;;25.02;3.97;;;0.30;99.90;;;;;;4979284;28;20030;-69
2024/01/28 07:03:25;;;;;;;15.25;3.72;;;0.30;99.90;;;;;;4979914;28;20133;-70
2024/01/28 07:05:51;;;;;;;;;;;0.30;99.90;;;;;;4980797;28;20069;-70
2024/01/28 07:08:19;;;;;;;12.50;3.83;;;0.30;99.90;;;;;;4978469;28;19917;-70
2024/01/28 07:10:44;;;;;;;;;;;0.20;99.90;;;;;;4980873;28;20087;-70
2024/01/28 07:13:10;;;;;;;13.80;3.40;;;0.20;99.90;;;;;;4978291;28;19917;-69
2024/01/28 07:15:38;;;;;;;11.68;3.67;;;0.30;99.90;;;;;;4981815;28;20041;-70
2024/01/28 07:18:04;;;;;;;19.42;4.07;;;0.30;99.90;;;;;;4978757;28;20277;-70
2024/01/28 07:20:29;;;;;;;8.27;3.25;;;0.30;99.90;;;;;;4979681;28;20133;-69
2024/01/28 07:22:55;;;;;;;26.75;4.68;;;0.40;99.90;;;;;;4983265;28;20039;-69
2024/01/28 07:25:22;;;;;;;17.27;3.28;;;0.40;99.90;;;;;;4981906;28;20260;-70
2024/01/28 07:27:48;;;;;;;17.70;3.50;;;0.40;99.90;;;;;;4980937;28;20098;-70
2024/01/28 07:30:14;;;;;;;16.40;3.65;;;0.50;99.90;;;;;;4982780;28;20364;-70
2024/01/28 07:32:39;;;;;;;18.42;3.70;;;0.40;99.90;;;;;;4980844;28;20141;-70
2024/01/28 07:35:05;;;;;;;16.52;3.95;;;0.50;99.90;;;;;;4982666;28;20041;-69
2024/01/28 07:37:31;;;;;;;15.75;2.85;;;0.50;99.90;;;;;;4979881;28;20038;-70
2024/01/28 07:39:56;;;;;;;21.02;3.67;;;0.50;99.90;;;;;;4983694;28;20305;-70
2024/01/28 07:42:22;;;;;;;8.63;2.88;;;0.50;99.90;;;;;;4981325;28;20046;-70
2024/01/28 07:44:47;;;;;;;14.82;4.30;;;0.50;99.90;;;;;;4983739;28;20058;-69
2024/01/28 07:47:13;;;;;;;9.98;3.17;;;0.60;99.90;;;;;;4982124;28;20509;-70
2024/01/28 07:49:41;;;;;;;12.43;4.60;;;0.60;99.90;;;;;;4981470;28;20038;-69
2024/01/28 07:52:07;;;;;;;19.98;4.40;;;0.70;99.90;;;;;;4980755;28;20037;-69
2024/01/28 07:54:32;;;;;;;13.82;4.38;;;0.80;99.90;;;;;;4977160;28;20042;-69
2024/01/28 07:56:59;;;;;;;14.95;4.13;;;0.90;99.90;;;;;;4981564;28;20053;-69
2024/01/28 07:59:27;;;;;;;21.13;3.88;;;1.00;99.90;;;;;;4985466;28;20692;-69
2024/01/28 08:01:52;;;;;;;12.65;3.72;;;1.10;99.90;;;;;;4984408;28;20093;-69
2024/01/28 08:04:23;;;;;;;21.63;4.32;;;1.10;99.90;;;;;;4987156;28;20667;-70
2024/01/28 08:06:50;;;;;;;18.92;3.53;;;1.20;99.90;;;;;;4984377;28;20764;-70
2024/01/28 08:09:18;;;;;;;11.05;4.00;;;1.30;99.90;;;;;;4984758;28;20117;-69
2024/01/28 08:11:44;;;;;;;16.20;3.78;;;1.40;99.90;;;;;;4985715;28;20104;-69
2024/01/28 08:14:09;;;;;;;12.23;3.38;;;1.40;99.90;;;;;;4985663;28;20500;-69
2024/01/28 08:16:35;;;;;;;12.43;3.28;;;1.50;99.90;;;;;;4984529;28;20057;-69
2024/01/28 08:19:04;;;;;;;16.73;3.80;;;1.60;99.90;;;;;;4985515;28;20378;-69
2024/01/28 08:21:30;;;;;;;17.50;3.38;;;1.70;99.90;;;;;;4982767;28;20101;-69
2024/01/28 08:23:58;;;;;;;10.82;3.53;;;1.70;99.90;;;;;;4981353;28;20030;-69
2024/01/28 08:26:26;;;;;;;17.20;3.42;;;1.80;99.90;;;;;;4986238;28;20764;-70
2024/01/28 08:28:52;;;;;;;19.67;3.90;;;1.90;99.90;;;;;;4985012;28;20039;-70
2024/01/28 08:31:18;;;;;;;13.95;3.83;;;2.00;99.90;;;;;;4985897;28;20034;-70
2024/01/28 08:33:44;;;;;;;13.27;4.05;;;2.10;99.90;;;;;;4985459;28;20048;-70
2024/01/28 08:36:12;;;;;;;11.75;3.92;;;2.10;99.90;;;;;;4985522;28;20293;-70
2024/01/28 08:38:37;;;;;;;18.58;4.15;;;2.20;99.90;;;;;;4982784;28;20507;-70
2024/01/28 08:41:05;;;;;;;14.68;3.83;;;2.30;99.90;;;;;;4984651;28;20042;-69
2024/01/28 08:43:31;;;;;;;16.05;3.45;;;2.30;99.90;;;;;;4982907;28;20392;-70
2024/01/28 08:45:56;;;;;;;25.63;3.72;;;2.40;99.90;;;;;;4985977;28;20026;-70
2024/01/28 08:48:22;;;;;;;16.30;3.67;;;2.50;99.90;;;;;;4983329;28;20030;-70
2024/01/28 08:50:48;;;;;;;14.73;3.28;;;2.60;99.90;;;;;;4982732;28;20041;-70
2024/01/28 08:53:14;;;;;;;13.05;2.70;;;2.70;99.90;;;;;;4977194;28;20034;-69
2024/01/28 08:55:42;;;;;;;6.53;2.25;;;2.80;99.90;;;;;;4981402;28;20265;-69
2024/01/28 08:58:10;;;;;;;;;;;2.90;99.90;;;;;;4982208;28;20028;-69
2024/01/28 09:00:35;;;;;;;15.48;2.60;;;3.00;99.90;;;;;;4986453;28;19920;-70
2024/01/28 09:03:01;;;;;;;16.30;2.95;;;3.10;99.90;;;;;;5002999;28;20042;-70
2024/01/28 09:05:27;;;;;;;13.27;3.05;;;3.20;99.90;;;;;;4985265;28;20133;-72
2024/01/28 09:07:56;;;;;;;14.07;2.90;;;3.30;99.90;;;;;;4984595;28;20134;-72
2024/01/28 09:10:24;;;;;;;25.20;3.63;;;3.30;99.90;;;;;;4986471;28;20026;-72
2024/01/28 09:12:49;;;;;;;10.35;2.22;;;3.40;99.90;;;;;;4982159;28;20057;-72
2024/01/28 09:15:17;;;;;;;11.88;2.53;;;3.50;99.90;;;;;;4985119;28;20072;-72
2024/01/28 09:17:43;;;;;;;12.48;2.83;;;3.60;99.90;;;;;;4985131;28;20033;-72
2024/01/28 09:20:09;;;;;;;12.95;3.42;;;3.70;99.90;;;;;;4988258;28;20037;-70
2024/01/28 09:22:35;;;;;;;15.05;3.00;;;3.80;99.90;;;;;;4984399;28;20080;-70
2024/01/28 09:25:04;;;;;;;10.73;2.50;;;3.90;99.90;;;;;;4996556;28;20055;-70
2024/01/28 09:27:33;;;;;;;17.58;3.08;;;4.00;99.90;;;;;;4983483;28;20465;-70
2024/01/28 09:29:59;;;;;;;13.38;3.13;;;4.10;99.90;;;;;;4984009;28;20045;-69
2024/01/28 09:32:24;;;;;;;14.38;2.20;;;4.20;99.90;;;;;;4985406;28;20459;-70
2024/01/28 09:34:51;;;;;;;9.77;2.83;;;4.30;99.90;;;;;;4985822;28;20453;-72
2024/01/28 09:37:17;;;;;;;13.23;2.83;;;4.40;99.90;;;;;;4979856;28;20089;-72
2024/01/28 09:39:43;;;;;;;19.25;2.80;;;4.60;99.90;;;;;;4984395;28;20508;-72
2024/01/28 09:42:34;;;;;;;12.13;2.97;;;4.70;99.90;;;;;;4979873;28;20544;-72
2024/01/28 09:45:02;;;;;;;15.15;2.78;;;4.80;99.90;;;;;;4982990;28;20046;-72
2024/01/28 09:47:32;;;;;;;11.07;2.58;;;4.90;99.90;;;;;;4977240;28;20047;-72
2024/01/28 09:50:00;;;;;;;11.50;2.33;;;5.00;99.90;;;;;;4977953;28;20027;-70
2024/01/28 09:52:27;;;;;;;;;;;5.20;99.90;;;;;;4980625;28;20041;-72
2024/01/28 09:54:55;;;;;;;16.58;2.50;;;5.20;99.90;;;;;;4984022;28;19906;-72
2024/01/28 09:57:21;;;;;;;11.82;2.72;;;5.30;99.90;;;;;;4981757;28;20097;-70
2024/01/28 09:59:47;;;;;;;12.00;2.50;;;5.40;99.90;;;;;;4980722;28;20038;-70
2024/01/28 10:02:17;;;;;;;10.55;2.75;;;5.40;99.90;;;;;;4980294;28;20304;-70
2024/01/28 10:04:45;;;;;;;10.82;2.63;;;5.60;99.90;;;;;;4979754;28;20444;-70
2024/01/28 10:07:11;;;;;;;16.38;2.92;;;5.60;99.90;;;;;;4984582;28;20035;-71
2024/01/28 10:09:37;;;;;;;9.63;2.80;;;5.70;99.90;;;;;;4981186;28;20261;-70
2024/01/28 10:12:04;;;;;;;12.80;2.30;;;5.80;99.90;;;;;;4979449;28;20031;-71
2024/01/28 10:14:29;;;;;;;11.95;2.70;;;5.90;99.90;;;;;;4980894;28;20469;-71
2024/01/28 10:16:56;;;;;;;13.98;2.25;;;6.00;99.90;;;;;;4980475;28;20057;-71
2024/01/28 10:19:22;;;;;;;10.73;2.43;;;6.10;99.90;;;;;;4981550;28;20556;-71
2024/01/28 10:21:48;;;;;;;10.48;2.90;;;6.30;99.90;;;;;;4980372;28;20309;-71
2024/01/28 10:24:18;;;;;;;9.95;2.00;;;6.40;99.90;;;;;;4979147;28;20555;-71
2024/01/28 10:26:44;;;;;;;9.75;2.47;;;6.70;99.90;;;;;;4975041;28;20552;-71
2024/01/28 10:29:13;;;;;;;9.35;2.70;;;6.90;99.90;;;;;;4980517;28;20076;-71
2024/01/28 10:31:38;;;;;;;8.20;2.25;;;7.20;99.90;;;;;;4975137;28;20561;-71
2024/01/28 10:34:08;;;;;;;10.05;2.05;;;7.40;99.90;;;;;;4981336;28;20034;-71
2024/01/28 10:36:39;;;;;;;10.85;2.00;;;7.70;99.90;;;;;;4984225;28;20096;-71
2024/01/28 10:39:05;;;;;;;10.13;2.05;;;7.90;99.90;;;;;;4981070;28;20039;-71
2024/01/28 10:41:34;;;;;;;7.05;2.28;;;8.10;99.90;;;;;;4985058;28;20489;-71
2024/01/28 10:44:05;;;;;;;9.90;2.45;;;8.30;99.90;;;;;;4982027;28;20050;-71
2024/01/28 10:46:41;;;;;;;12.02;2.33;;;8.50;99.90;;;;;;4981753;28;20029;-71
2024/01/28 10:49:09;;;;;;;9.88;1.90;;;8.70;99.90;;;;;;4978588;28;20437;-71
2024/01/28 10:51:38;;;;;;;12.55;2.50;;;8.90;99.90;;;;;;4978795;28;20035;-72
2024/01/28 10:54:09;;;;;;;6.97;1.70;;;9.00;99.90;;;;;;4983704;28;20743;-72
2024/01/28 10:56:39;;;;;;;6.80;2.08;;;9.20;99.90;;;;;;4981301;28;20030;-72
2024/01/28 10:59:07;;;;;;;5.75;1.65;;;9.50;99.90;;;;;;4970549;28;20959;-72
2024/01/28 11:01:36;;;;;;;14.50;2.17;;;9.80;99.90;;;;;;4973807;28;20102;-73
2024/01/28 11:04:04;;;;;;;8.90;2.00;;;10.00;98.70;;;;;;4996463;28;20113;-73
2024/01/28 11:06:30;;;;;;;9.30;1.98;;;10.00;97.60;;;;;;4974361;28;20185;-73
2024/01/28 11:08:55;;;;;;;12.68;2.10;;;10.40;98.80;;;;;;4976921;28;20129;-73
2024/01/28 11:11:22;;;;;;;10.50;2.10;;;10.60;98.00;;;;;;4979668;28;20161;-74
2024/01/28 11:13:48;;;;;;;8.35;1.83;;;10.70;97.40;;;;;;4984647;28;20050;-74
2024/01/28 11:16:15;;;;;;;6.25;2.05;;;10.80;97.20;;;;;;4982309;28;20532;-74
2024/01/28 11:18:57;;;;;;;10.90;2.30;;;11.10;96.90;;;;;;4977323;28;20065;-74
2024/01/28 11:21:28;;;;;;;12.20;2.90;;;11.40;97.00;;;;;;4983175;28;20034;-74
2024/01/28 11:23:56;;;;;;;6.30;1.35;;;11.70;96.60;;;;;;4981410;28;20057;-74
2024/01/28 11:26:25;;;;;;;12.90;2.03;;;12.00;95.90;;;;;;4975852;28;20103;-74
2024/01/28 11:28:55;;;;;;;7.93;2.08;;;12.20;95.50;;;;;;4980512;28;20027;-75
2024/01/28 11:31:32;;;;;;;5.78;1.98;;;12.50;94.90;;;;;;4983044;28;20031;-75
2024/01/28 11:34:17;;;;;;;5.20;1.85;;;12.90;94.00;;;;;;4985795;28;20417;-74
2024/01/28 11:36:47;;;;;;;3.95;1.58;;;13.30;94.20;;;;;;4980031;28;20391;-74
2024/01/28 11:39:15;;;;;;;7.85;1.77;;;13.30;93.50;;;;;;4985142;28;20043;-74
2024/01/28 11:41:50;;;;;;;5.78;1.92;;;13.80;93.30;;;;;;4985796;28;20039;-74
2024/01/28 11:44:15;;;;;;;12.20;1.63;;;14.50;93.00;;;;;;4986955;28;20026;-74
2024/01/28 11:46:43;;;;;;;4.25;1.77;;;15.10;91.70;;;;;;4989451;28;20054;-74
2024/01/28 11:49:12;;;;;;;6.53;2.55;;;15.70;91.80;;;;;;4984404;28;20053;-74
2024/01/28 11:51:37;;;;;;;7.20;2.05;;;16.10;90.00;;;;;;4983387;28;20022;-74
2024/01/28 11:54:04;;;;;;;9.18;1.83;;;16.30;89.20;;;;;;4986837;28;20638;-74
2024/01/28 11:56:36;;;;;;;8.10;1.60;;;16.60;88.10;;;;;;4985124;28;20033;-74
2024/01/28 11:59:03;;;;;;;8.45;2.40;;;16.60;84.60;;;;;;4983907;28;20030;-74
2024/01/28 12:01:29;;;;;;;6.10;1.58;;;16.60;84.60;;;;;;4987222;28;20027;-74
2024/01/28 12:03:55;;;;;;;9.45;1.85;;;16.80;85.10;;;;;;4986914;28;20022;-74
2024/01/28 12:06:27;;;;;;;6.05;1.60;;;16.70;83.30;;;;;;4982513;28;20030;-74
2024/01/28 12:08:56;;;;;;;3.10;1.50;;;16.70;82.40;;;;;;4983633;28;20481;-74
2024/01/28 12:11:24;;;;;;;9.85;1.63;;;16.60;82.40;;;;;;4989605;28;20026;-74
2024/01/28 12:13:50;;;;;;;4.90;1.80;;;16.50;82.00;;;;;;4989576;28;20515;-74
2024/01/28 12:16:20;;;;;;;7.15;1.73;;;16.50;82.30;;;;;;4982992;28;20030;-74
2024/01/28 12:18:46;;;;;;;3.95;1.65;;;16.30;80.40;;;;;;4986762;28;20045;-73
2024/01/28 12:21:20;;;;;;;4.13;1.48;;;16.20;79.70;;;;;;4985311;28;20342;-74
2024/01/28 12:23:47;;;;;;;8.00;1.90;;;15.80;79.70;;;;;;4982963;28;20069;-73
2024/01/28 12:26:15;;;;;;;4.80;1.50;;;15.60;79.40;;;;;;4986706;28;20057;-73
2024/01/28 12:28:45;;;;;;;4.07;1.25;;;15.30;78.90;;;;;;4980258;28;20046;-73
2024/01/28 12:31:11;;;;;;;5.97;1.50;;;15.00;80.80;;;;;;4986849;28;20385;-73
2024/01/28 12:33:36;;;;;;;8.75;1.70;;;15.00;81.10;;;;;;4986602;28;20061;-73
2024/01/28 12:36:02;;;;;;;5.22;1.48;;;14.70;78.70;;;;;;4983901;28;20449;-73
2024/01/28 12:38:31;;;;;;;7.03;1.65;;;14.60;80.00;;;;;;4985201;28;20061;-73
2024/01/28 12:40:57;;;;;;;9.80;1.58;;;14.30;79.70;;;;;;4980377;28;20057;-73
2024/01/28 12:43:22;;;;;;;6.05;1.25;;;14.30;80.10;;;;;;4983596;28;20030;-73
2024/01/28 12:45:51;;;;;;;3.65;1.40;;;14.10;80.30;;;;;;5008358;23;20059;-73
2024/01/28 12:48:17;;;;;;;2.78;1.20;;;13.80;80.00;;;;;;4985391;28;20031;-72